createdAt,value
2023-03-28T00:00:52.881Z,0.93
2023-03-28T00:03:22.472Z,0.95
2023-03-28T00:05:55.298Z,1.30
2023-03-28T00:08:24.141Z,0.98
2023-03-28T00:10:52.801Z,0.93
2023-03-28T00:13:21.468Z,0.77
2023-03-28T00:15:52.830Z,1.00
2023-03-28T00:18:23.007Z,0.93
2023-03-28T00:20:53.691Z,1.08
2023-03-28T00:23:22.393Z,1.05
2023-03-28T00:25:51.224Z,0.95
2023-03-28T00:28:19.892Z,1.00
2023-03-28T00:30:48.568Z,1.13
2023-03-28T00:33:17.326Z,0.88
2023-03-28T00:35:47.490Z,0.90
2023-03-28T00:38:16.221Z,1.17
2023-03-28T00:40:47.945Z,0.80
2023-03-28T00:43:16.688Z,1.13
2023-03-28T00:45:47.312Z,1.02
2023-03-28T00:48:21.748Z,1.27
2023-03-28T00:50:51.753Z,1.08
2023-03-28T00:53:21.763Z,0.93
2023-03-28T00:55:52.359Z,1.25
2023-03-28T00:58:23.966Z,1.25
2023-03-28T01:00:55.445Z,1.10
2023-03-28T01:03:27.780Z,1.17
2023-03-28T01:05:59.036Z,1.00
2023-03-28T01:08:39.717Z,1.00
2023-03-28T01:11:08.771Z,0.95
2023-03-28T01:13:39.826Z,1.23
2023-03-28T01:16:09.676Z,0.80
2023-03-28T01:18:41.593Z,0.82
2023-03-28T01:21:21.338Z,1.00
2023-03-28T01:24:12.450Z,0.90
2023-03-28T01:26:49.787Z,1.38
2023-03-28T01:29:38.988Z,1.15
2023-03-28T01:32:32.090Z,1.63
2023-03-28T01:35:27.393Z,1.00
2023-03-28T01:38:00.346Z,1.08
2023-03-28T01:40:34.998Z,0.90
2023-03-28T01:43:13.461Z,1.05
2023-03-28T01:45:48.179Z,1.13
2023-03-28T01:48:24.177Z,0.90
2023-03-28T01:50:56.290Z,1.13
2023-03-28T01:53:30.653Z,0.90
2023-03-28T01:56:03.144Z,1.20
2023-03-28T01:58:34.664Z,1.15
2023-03-28T02:01:09.067Z,0.82
2023-03-28T02:03:40.063Z,1.25
2023-03-28T02:06:21.142Z,0.90
2023-03-28T02:08:51.877Z,1.20
2023-03-28T02:11:25.815Z,0.95
2023-03-28T02:13:59.363Z,0.93
2023-03-28T02:16:50.181Z,1.00
2023-03-28T02:19:48.225Z,1.10
2023-03-28T02:22:30.071Z,1.20
2023-03-28T02:25:02.991Z,0.90
2023-03-28T02:27:57.403Z,0.90
2023-03-28T02:30:40.137Z,1.10
2023-03-28T02:33:30.303Z,1.20
2023-03-28T02:36:01.882Z,0.90
2023-03-28T02:38:38.109Z,1.00
2023-03-28T02:41:13.535Z,0.80
2023-03-28T02:43:50.887Z,1.10
2023-03-28T02:46:25.922Z,0.82
2023-03-28T02:49:07.098Z,1.00
2023-03-28T02:51:40.551Z,0.90
2023-03-28T02:54:15.386Z,1.15
2023-03-28T02:56:52.991Z,0.90
2023-03-28T02:59:55.859Z,1.05
2023-03-28T03:02:25.039Z,0.80
2023-03-28T03:04:57.657Z,1.10
2023-03-28T03:07:27.081Z,1.15
2023-03-28T03:09:55.799Z,1.13
2023-03-28T03:12:26.616Z,1.00
2023-03-28T03:15:01.095Z,1.00
2023-03-28T03:17:50.998Z,0.90
2023-03-28T03:20:26.334Z,0.90
2023-03-28T03:22:55.465Z,1.35
2023-03-28T03:25:24.528Z,1.00
2023-03-28T03:27:59.874Z,0.90
2023-03-28T03:30:28.616Z,1.02
2023-03-28T03:33:26.640Z,0.93
2023-03-28T03:36:01.569Z,1.05
2023-03-28T03:38:30.469Z,1.02
2023-03-28T03:40:59.523Z,0.95
2023-03-28T03:43:29.807Z,0.95
2023-03-28T03:46:00.454Z,1.20
2023-03-28T03:48:29.780Z,1.02
2023-03-28T03:51:00.564Z,1.20
2023-03-28T03:53:30.131Z,0.80
2023-03-28T03:56:07.587Z,1.00
2023-03-28T03:58:54.096Z,0.77
2023-03-28T04:01:25.926Z,1.30
2023-03-28T04:03:56.439Z,1.08
2023-03-28T04:06:32.442Z,1.08
2023-03-28T04:09:05.532Z,0.90
2023-03-28T04:11:55.050Z,1.10
2023-03-28T04:14:25.128Z,1.02
2023-03-28T04:17:04.563Z,1.13
2023-03-28T04:19:33.288Z,0.90
2023-03-28T04:22:04.331Z,1.10
2023-03-28T04:24:33.778Z,1.15
2023-03-28T04:27:34.671Z,0.98
2023-03-28T04:30:07.259Z,0.90
2023-03-28T04:33:04.884Z,1.20
2023-03-28T04:35:39.380Z,1.30
2023-03-28T04:38:09.723Z,1.13
2023-03-28T04:40:53.698Z,1.08
2023-03-28T04:43:41.131Z,0.70
2023-03-28T04:46:11.504Z,0.68
2023-03-28T04:48:40.354Z,1.00
2023-03-28T04:51:09.774Z,0.90
2023-03-28T04:53:41.254Z,0.90
2023-03-28T04:56:30.191Z,1.02
2023-03-28T04:58:59.002Z,0.85
2023-03-28T05:01:31.385Z,0.68
2023-03-28T05:04:21.355Z,0.90
2023-03-28T05:06:51.587Z,1.10
2023-03-28T05:09:20.972Z,0.90
2023-03-28T05:11:50.755Z,1.10
2023-03-28T05:14:19.687Z,0.90
2023-03-28T05:16:53.410Z,1.38
2023-03-28T05:19:40.438Z,1.20
2023-03-28T05:22:17.210Z,1.35
2023-03-28T05:24:45.879Z,1.50
2023-03-28T05:27:19.505Z,1.17
2023-03-28T05:29:49.582Z,1.33
2023-03-28T05:32:21.655Z,1.00
2023-03-28T05:34:50.722Z,1.05
2023-03-28T05:37:19.401Z,1.23
2023-03-28T05:39:53.968Z,1.17
2023-03-28T05:42:22.722Z,0.90
2023-03-28T05:44:51.709Z,1.38
2023-03-28T05:47:27.878Z,1.23
2023-03-28T05:49:56.529Z,0.98
2023-03-28T05:52:25.622Z,1.45
2023-03-28T05:54:56.179Z,1.23
2023-03-28T05:57:25.175Z,0.98
2023-03-28T05:59:54.810Z,1.00
2023-03-28T06:02:25.183Z,1.27
2023-03-28T06:05:00.390Z,0.82
2023-03-28T06:07:41.346Z,1.13
2023-03-28T06:10:13.553Z,1.10
2023-03-28T06:12:46.511Z,1.20
2023-03-28T06:15:15.609Z,1.30
2023-03-28T06:17:47.600Z,1.20
2023-03-28T06:20:18.248Z,1.10
2023-03-28T06:22:47.059Z,1.42
2023-03-28T06:25:16.682Z,1.05
2023-03-28T06:27:45.300Z,1.20
2023-03-28T06:30:14.804Z,1.15
2023-03-28T06:32:51.205Z,1.30
2023-03-28T06:35:21.300Z,1.10
2023-03-28T06:37:50.625Z,1.23
2023-03-28T06:40:26.516Z,1.00
2023-03-28T06:42:55.551Z,0.90
2023-03-28T06:45:43.090Z,1.15
2023-03-28T06:48:15.127Z,0.90
2023-03-28T06:51:14.146Z,1.10
2023-03-28T06:53:43.687Z,1.05
2023-03-28T06:56:13.360Z,1.10
2023-03-28T06:58:42.253Z,1.23
2023-03-28T07:01:13.731Z,1.08
2023-03-28T07:04:04.310Z,1.00
2023-03-28T07:06:34.748Z,1.20
2023-03-28T07:09:06.025Z,0.93
2023-03-28T07:11:46.113Z,1.20
2023-03-28T07:14:15.042Z,0.93
2023-03-28T07:16:43.936Z,1.05
2023-03-28T07:19:13.051Z,0.95
2023-03-28T07:21:46.199Z,0.90
2023-03-28T07:24:15.607Z,1.27
2023-03-28T07:27:01.305Z,0.90
2023-03-28T07:29:41.135Z,0.90
2023-03-28T07:32:09.758Z,0.95
2023-03-28T07:34:38.393Z,1.05
2023-03-28T07:37:11.236Z,1.00
2023-03-28T07:39:50.930Z,1.10
2023-03-28T07:42:23.381Z,0.98
2023-03-28T07:44:52.058Z,0.98
2023-03-28T07:47:21.282Z,0.90
2023-03-28T07:49:51.275Z,0.88
2023-03-28T07:52:22.066Z,1.00
2023-03-28T07:54:50.932Z,1.20
2023-03-28T07:57:19.805Z,1.10
2023-03-28T08:00:13.292Z,1.05
2023-03-28T08:02:44.805Z,1.00
2023-03-28T08:05:14.548Z,0.88
2023-03-28T08:07:46.172Z,1.10
2023-03-28T08:10:15.833Z,1.08
2023-03-28T08:12:44.543Z,1.05
2023-03-28T08:15:13.566Z,0.60
2023-03-28T08:17:42.274Z,1.55
2023-03-28T08:20:11.849Z,0.98
2023-03-28T08:23:00.516Z,0.93
2023-03-28T08:25:48.000Z,1.08
2023-03-28T08:28:22.240Z,1.00
2023-03-28T08:30:51.086Z,1.00
2023-03-28T08:33:19.860Z,1.20
2023-03-28T08:35:48.985Z,1.30
2023-03-28T08:38:21.713Z,1.05
2023-03-28T08:40:56.648Z,1.10
2023-03-28T08:43:43.547Z,0.98
2023-03-28T08:46:14.630Z,1.00
2023-03-28T08:48:45.571Z,1.27
2023-03-28T08:51:17.793Z,1.38
2023-03-28T08:53:51.417Z,1.00
2023-03-28T08:56:20.239Z,1.13
2023-03-28T08:58:52.591Z,1.17
2023-03-28T09:01:23.652Z,1.00
2023-03-28T09:03:52.537Z,1.70
2023-03-28T09:06:29.580Z,1.10
2023-03-28T09:09:05.791Z,1.08
2023-03-28T09:11:42.754Z,1.30
2023-03-28T09:14:17.988Z,0.82
2023-03-28T09:16:53.763Z,1.02
2023-03-28T09:19:40.607Z,1.13
2023-03-28T09:22:40.031Z,0.90
2023-03-28T09:25:19.907Z,1.17
2023-03-28T09:27:53.378Z,1.10
2023-03-28T09:30:24.915Z,1.30
2023-03-28T09:32:58.322Z,1.17
2023-03-28T09:35:27.793Z,1.13
2023-03-28T09:37:58.580Z,1.30
2023-03-28T09:40:29.507Z,1.25
2023-03-28T09:43:18.821Z,1.40
2023-03-28T09:46:02.887Z,1.13
2023-03-28T09:48:58.262Z,1.20
2023-03-28T09:51:31.984Z,1.10
2023-03-28T09:54:00.755Z,1.20
2023-03-28T09:56:32.202Z,1.10
2023-03-28T09:59:28.554Z,1.48
2023-03-28T10:02:00.840Z,1.27
2023-03-28T10:04:36.985Z,1.10
2023-03-28T10:07:33.809Z,1.17
2023-03-28T10:10:24.984Z,1.40
2023-03-28T10:13:06.073Z,0.90
2023-03-28T10:15:42.409Z,1.15
2023-03-28T10:18:32.374Z,1.17
2023-03-28T10:21:21.020Z,1.10
2023-03-28T10:24:01.522Z,0.98
2023-03-28T10:26:30.679Z,1.10
2023-03-28T10:29:05.514Z,0.90
2023-03-28T10:31:36.223Z,0.93
2023-03-28T10:34:26.927Z,1.10
2023-03-28T10:37:26.451Z,1.10
2023-03-28T10:40:25.758Z,1.05
2023-03-28T10:43:01.324Z,1.15
2023-03-28T10:45:51.013Z,1.00
2023-03-28T10:48:39.373Z,1.27
2023-03-28T10:51:17.552Z,1.13
2023-03-28T10:53:54.141Z,0.80
2023-03-28T10:56:30.027Z,0.82
2023-03-28T10:59:07.922Z,0.90
2023-03-28T11:01:43.887Z,1.00
2023-03-28T11:04:21.257Z,0.90
2023-03-28T11:06:53.094Z,0.90
2023-03-28T11:09:37.974Z,0.90
2023-03-28T11:12:43.764Z,0.80
2023-03-28T11:15:24.318Z,1.10
2023-03-28T11:18:05.448Z,0.95
2023-03-28T11:20:39.305Z,0.90
2023-03-28T11:23:17.898Z,0.95
2023-03-28T11:26:06.658Z,0.95
2023-03-28T11:29:04.297Z,1.20
2023-03-28T11:31:35.294Z,0.77
2023-03-28T11:34:08.528Z,0.88
2023-03-28T11:36:39.975Z,0.90
2023-03-28T11:39:13.258Z,0.80
2023-03-28T11:41:43.293Z,1.00
2023-03-28T11:44:18.397Z,1.13
2023-03-28T11:46:48.171Z,0.95
2023-03-28T11:49:22.321Z,1.10
2023-03-28T11:51:55.745Z,0.90
2023-03-28T11:54:28.335Z,0.93
2023-03-28T11:57:00.718Z,0.77
2023-03-28T11:59:41.804Z,0.65
2023-03-28T12:02:14.696Z,1.33
2023-03-28T12:04:47.958Z,0.65
2023-03-28T12:07:19.694Z,1.05
2023-03-28T12:09:58.953Z,0.90
2023-03-28T12:12:31.008Z,0.90
2023-03-28T12:15:02.192Z,0.80
2023-03-28T12:18:12.485Z,0.95
2023-03-28T12:20:45.701Z,0.85
2023-03-28T12:23:29.109Z,0.80
2023-03-28T12:26:30.321Z,0.88
2023-03-28T12:29:03.176Z,0.82
2023-03-28T12:31:33.959Z,0.77
2023-03-28T12:34:16.253Z,1.05
2023-03-28T12:37:12.059Z,1.08
2023-03-28T12:39:45.732Z,1.02
2023-03-28T12:42:22.590Z,0.90
2023-03-28T12:44:54.252Z,0.95
2023-03-28T12:47:24.608Z,0.90
2023-03-28T12:49:57.525Z,1.10
2023-03-28T12:52:29.142Z,0.80
2023-03-28T12:55:01.720Z,0.63
2023-03-28T12:57:48.877Z,0.70
2023-03-28T13:00:48.684Z,0.80
2023-03-28T13:03:44.384Z,0.75
2023-03-28T13:06:20.674Z,0.80
2023-03-28T13:08:59.255Z,1.10
2023-03-28T13:11:33.810Z,0.90
2023-03-28T13:14:05.915Z,0.80
2023-03-28T13:16:44.921Z,0.90
2023-03-28T13:19:16.421Z,0.75
2023-03-28T13:21:47.806Z,0.60
2023-03-28T13:24:31.747Z,0.80
2023-03-28T13:27:01.372Z,0.63
2023-03-28T13:29:45.281Z,0.60
2023-03-28T13:32:15.572Z,0.80
2023-03-28T13:34:48.454Z,0.70
2023-03-28T13:37:23.044Z,0.60
2023-03-28T13:39:54.275Z,0.60
2023-03-28T13:42:30.246Z,0.65
2023-03-28T13:45:01.082Z,0.60
2023-03-28T13:47:32.850Z,0.93
2023-03-28T13:50:03.448Z,0.82
2023-03-28T13:52:33.401Z,0.88
2023-03-28T13:55:04.072Z,0.70
2023-03-28T13:57:32.895Z,0.77
2023-03-28T14:00:04.293Z,0.60
2023-03-28T14:02:43.602Z,0.60
2023-03-28T14:05:16.703Z,0.57
2023-03-28T14:07:45.420Z,0.60
2023-03-28T14:10:38.060Z,0.60
2023-03-28T14:13:09.380Z,0.63
2023-03-28T14:15:39.822Z,0.60
2023-03-28T14:18:09.404Z,0.60
2023-03-28T14:20:40.254Z,0.60
2023-03-28T14:23:09.535Z,0.50
2023-03-28T14:25:38.265Z,0.60
2023-03-28T14:28:11.614Z,0.73
2023-03-28T14:30:42.208Z,0.70
2023-03-28T14:33:18.894Z,0.60
2023-03-28T14:35:57.338Z,0.60
2023-03-28T14:38:30.358Z,0.40
2023-03-28T14:41:06.393Z,0.70
2023-03-28T14:43:37.741Z,0.70
2023-03-28T14:46:08.367Z,0.40
2023-03-28T14:48:38.088Z,0.60
2023-03-28T14:51:07.885Z,0.60
2023-03-28T14:53:37.895Z,0.50
2023-03-28T14:56:09.285Z,0.70
2023-03-28T14:58:42.282Z,0.50
2023-03-28T15:01:12.623Z,0.50
2023-03-28T15:03:42.268Z,0.70
2023-03-28T15:06:15.774Z,0.70
2023-03-28T15:08:45.637Z,0.60
2023-03-28T15:11:17.028Z,0.60
2023-03-28T15:13:48.817Z,0.50
2023-03-28T15:16:19.347Z,0.75
2023-03-28T15:18:48.969Z,0.85
2023-03-28T15:21:17.754Z,0.68
2023-03-28T15:23:47.430Z,0.80
2023-03-28T15:26:21.241Z,0.80
2023-03-28T15:28:51.306Z,0.73
2023-03-28T15:31:20.625Z,0.70
2023-03-28T15:33:49.635Z,0.77
2023-03-28T15:36:19.322Z,0.70
2023-03-28T15:38:51.289Z,0.70
2023-03-28T15:41:21.762Z,0.70
2023-03-28T15:44:13.215Z,0.88
2023-03-28T15:46:42.048Z,0.60
2023-03-28T15:49:13.133Z,0.65
2023-03-28T15:51:45.902Z,0.60
2023-03-28T15:54:28.208Z,0.80
2023-03-28T15:57:01.470Z,0.65
2023-03-28T15:59:34.306Z,0.57
2023-03-28T16:02:22.533Z,0.60
2023-03-28T16:05:01.634Z,0.60
2023-03-28T16:07:34.719Z,0.80
2023-03-28T16:10:03.645Z,0.75
2023-03-28T16:12:37.354Z,0.73
2023-03-28T16:15:26.080Z,0.82
2023-03-28T16:18:03.362Z,0.60
2023-03-28T16:20:42.706Z,0.80
2023-03-28T16:23:13.069Z,0.60
2023-03-28T16:25:42.013Z,0.60
2023-03-28T16:28:11.181Z,0.50
2023-03-28T16:30:41.639Z,0.50
2023-03-28T16:33:10.474Z,0.55
2023-03-28T16:35:39.395Z,0.60
2023-03-28T16:38:08.116Z,0.90
2023-03-28T16:40:37.009Z,0.82
2023-03-28T16:43:05.751Z,0.90
2023-03-28T16:45:34.472Z,0.63
2023-03-28T16:48:04.526Z,0.68
2023-03-28T16:50:33.645Z,0.70
2023-03-28T16:53:02.799Z,0.52
2023-03-28T16:55:31.586Z,0.60
2023-03-28T16:58:00.348Z,0.60
2023-03-28T17:00:39.130Z,0.60
2023-03-28T17:03:09.462Z,0.60
2023-03-28T17:05:38.655Z,0.70
2023-03-28T17:08:07.555Z,0.70
2023-03-28T17:10:36.258Z,0.70
2023-03-28T17:13:04.931Z,0.63
2023-03-28T17:15:33.868Z,1.20
2023-03-28T17:18:02.873Z,0.77
2023-03-28T17:20:33.183Z,0.70
2023-03-28T17:23:01.837Z,0.70
2023-03-28T17:25:31.011Z,0.73
2023-03-28T17:28:02.227Z,0.90
2023-03-28T17:30:30.943Z,0.70
2023-03-28T17:33:00.000Z,0.85
2023-03-28T17:35:29.172Z,0.70
2023-03-28T17:37:59.386Z,0.90
2023-03-28T17:40:29.175Z,0.70
2023-03-28T17:42:58.094Z,0.75
2023-03-28T17:45:27.032Z,0.65
2023-03-28T17:47:55.792Z,0.80
2023-03-28T17:50:25.345Z,0.90
2023-03-28T17:52:54.117Z,0.95
2023-03-28T17:55:24.394Z,0.98
2023-03-28T17:57:53.264Z,0.70
2023-03-28T18:00:22.711Z,0.80
2023-03-28T18:02:52.740Z,0.82
2023-03-28T18:05:41.638Z,0.98
2023-03-28T18:08:10.598Z,0.65
2023-03-28T18:10:41.690Z,0.90
2023-03-28T18:13:10.796Z,0.68
2023-03-28T18:15:40.868Z,0.98
2023-03-28T18:18:09.814Z,0.80
2023-03-28T18:20:38.701Z,0.63
2023-03-28T18:23:07.480Z,0.77
2023-03-28T18:25:37.216Z,0.80
2023-03-28T18:28:07.830Z,1.08
2023-03-28T18:30:37.064Z,0.82
2023-03-28T18:33:06.221Z,0.98
2023-03-28T18:35:35.123Z,1.20
2023-03-28T18:38:03.929Z,1.20
2023-03-28T18:40:32.673Z,1.05
2023-03-28T18:43:01.306Z,0.93
2023-03-28T18:45:31.397Z,1.17
2023-03-28T18:48:00.213Z,1.00
2023-03-28T18:50:29.705Z,1.00
2023-03-28T18:52:58.547Z,0.90
2023-03-28T18:55:27.246Z,1.00
2023-03-28T18:57:55.912Z,0.88
2023-03-28T19:00:24.676Z,0.93
2023-03-28T19:02:54.777Z,1.02
2023-03-28T19:05:24.621Z,0.90
2023-03-28T19:07:53.197Z,0.82
2023-03-28T19:10:21.997Z,1.15
2023-03-28T19:12:52.467Z,0.85
2023-03-28T19:15:22.850Z,1.10
2023-03-28T19:17:51.855Z,0.98
2023-03-28T19:20:22.881Z,1.15
2023-03-28T19:22:51.609Z,1.40
2023-03-28T19:25:20.620Z,1.30
2023-03-28T19:27:52.118Z,1.38
2023-03-28T19:30:20.941Z,1.42
2023-03-28T19:32:49.638Z,1.23
2023-03-28T19:35:18.395Z,1.23
2023-03-28T19:37:48.545Z,0.98
2023-03-28T19:40:17.477Z,0.93
2023-03-28T19:42:46.106Z,1.10
2023-03-28T19:45:14.848Z,0.93
2023-03-28T19:47:43.499Z,1.00
2023-03-28T19:50:12.447Z,0.85
2023-03-28T19:52:42.652Z,0.90
2023-03-28T19:55:12.821Z,1.00
2023-03-28T19:57:42.080Z,1.02
2023-03-28T20:00:11.272Z,1.00
2023-03-28T20:02:42.900Z,1.20
2023-03-28T20:05:11.860Z,1.13
2023-03-28T20:07:41.070Z,1.52
2023-03-28T20:10:10.094Z,1.50
2023-03-28T20:12:41.081Z,1.50
2023-03-28T20:15:10.683Z,1.10
2023-03-28T20:17:39.448Z,1.40
2023-03-28T20:20:10.184Z,1.02
2023-03-28T20:22:38.914Z,1.30
2023-03-28T20:25:08.175Z,1.30
2023-03-28T20:27:37.548Z,1.20
2023-03-28T20:30:09.469Z,1.02
2023-03-28T20:32:38.276Z,1.20
2023-03-28T20:35:07.585Z,1.45
2023-03-28T20:37:36.960Z,1.00
2023-03-28T20:40:10.918Z,1.38
2023-03-28T20:42:40.854Z,1.10
2023-03-28T20:45:22.134Z,1.05
2023-03-28T20:47:56.478Z,1.02
2023-03-28T20:50:25.875Z,1.02
2023-03-28T20:52:54.575Z,1.20
2023-03-28T20:55:25.817Z,1.05
2023-03-28T20:57:54.548Z,1.20
2023-03-28T21:00:25.334Z,1.48
2023-03-28T21:02:55.224Z,1.00
2023-03-28T21:05:24.809Z,1.30
2023-03-28T21:07:54.118Z,1.58
2023-03-28T21:10:23.170Z,1.40
2023-03-28T21:12:51.948Z,1.10
2023-03-28T21:15:20.794Z,1.40
2023-03-28T21:17:53.634Z,1.20
2023-03-28T21:20:22.556Z,1.40
2023-03-28T21:22:51.255Z,1.13
2023-03-28T21:25:20.995Z,1.17
2023-03-28T21:27:49.719Z,1.30
2023-03-28T21:30:19.436Z,1.42
2023-03-28T21:32:48.755Z,1.33
2023-03-28T21:35:19.170Z,1.30
2023-03-28T21:37:47.877Z,1.23
2023-03-28T21:40:17.475Z,1.38
2023-03-28T21:42:46.892Z,1.13
2023-03-28T21:45:15.951Z,1.00
2023-03-28T21:47:45.048Z,1.38
2023-03-28T21:50:15.115Z,1.25
2023-03-28T21:52:45.365Z,1.02
2023-03-28T21:55:13.977Z,1.27
2023-03-28T21:57:42.691Z,0.95
2023-03-28T22:00:15.025Z,1.33
2023-03-28T22:02:44.477Z,1.30
2023-03-28T22:05:26.677Z,1.30
2023-03-28T22:07:59.819Z,1.38
2023-03-28T22:10:29.482Z,1.00
2023-03-28T22:12:59.306Z,1.20
2023-03-28T22:15:28.098Z,1.33
2023-03-28T22:17:58.248Z,2.10
2023-03-28T22:20:28.174Z,1.75
2023-03-28T22:23:01.150Z,1.25
2023-03-28T22:25:35.723Z,1.10
2023-03-28T22:28:05.082Z,1.20
2023-03-28T22:30:34.029Z,1.35
2023-03-28T22:33:03.897Z,1.40
2023-03-28T22:35:33.617Z,1.50
2023-03-28T22:38:02.547Z,1.67
2023-03-28T22:40:32.841Z,1.58
2023-03-28T22:43:01.494Z,1.60
2023-03-28T22:45:30.354Z,1.50
2023-03-28T22:48:14.117Z,1.45
2023-03-28T22:50:44.177Z,1.65
2023-03-28T22:53:14.451Z,1.75
2023-03-28T22:55:45.499Z,2.00
2023-03-28T22:58:14.322Z,2.00
2023-03-28T23:00:43.870Z,2.20
2023-03-28T23:03:12.527Z,2.15
2023-03-28T23:05:41.198Z,1.80
2023-03-28T23:08:10.053Z,1.55
2023-03-28T23:10:38.865Z,1.85
2023-03-28T23:13:09.197Z,2.50
2023-03-28T23:15:37.845Z,1.90
2023-03-28T23:18:08.085Z,2.10
2023-03-28T23:20:37.367Z,1.52
2023-03-28T23:23:06.784Z,2.10
2023-03-28T23:25:35.670Z,1.70
2023-03-28T23:28:04.462Z,1.83
2023-03-28T23:30:34.475Z,1.60
2023-03-28T23:33:04.164Z,1.83
2023-03-28T23:35:32.980Z,1.70
2023-03-28T23:38:01.739Z,2.10
2023-03-28T23:40:30.356Z,1.80
2023-03-28T23:42:58.970Z,1.98
2023-03-28T23:45:27.706Z,2.28
2023-03-28T23:47:57.861Z,1.80
2023-03-28T23:50:26.629Z,2.10
2023-03-28T23:52:55.426Z,2.08
2023-03-28T23:55:25.753Z,1.75
2023-03-28T23:57:55.974Z,1.70
